createdAt,value
2022-10-11T00:01:26.816Z,16.50
2022-10-11T00:03:53.666Z,16.50
2022-10-11T00:06:20.599Z,16.60
2022-10-11T00:08:47.444Z,16.60
2022-10-11T00:11:14.280Z,16.50
2022-10-11T00:13:41.119Z,16.40
2022-10-11T00:16:11.370Z,16.10
2022-10-11T00:18:38.633Z,16.00
2022-10-11T00:21:07.400Z,16.20
2022-10-11T00:23:34.374Z,16.30
2022-10-11T00:26:02.235Z,16.50
2022-10-11T00:28:29.624Z,16.50
2022-10-11T00:30:56.653Z,16.50
2022-10-11T00:33:23.482Z,16.40
2022-10-11T00:35:50.371Z,16.30
2022-10-11T00:38:17.627Z,16.30
2022-10-11T00:40:45.284Z,16.30
2022-10-11T00:43:20.023Z,16.30
2022-10-11T00:46:18.795Z,16.40
2022-10-11T00:48:50.540Z,16.50
2022-10-11T00:51:24.035Z,16.50
2022-10-11T00:53:50.856Z,16.50
2022-10-11T00:56:31.390Z,16.50
2022-10-11T00:58:58.397Z,16.40
2022-10-11T01:01:25.330Z,16.40
2022-10-11T01:03:52.268Z,16.40
2022-10-11T01:06:19.101Z,16.40
2022-10-11T01:08:45.933Z,16.40
2022-10-11T01:11:14.165Z,16.40
2022-10-11T01:14:10.393Z,16.30
2022-10-11T01:17:00.277Z,16.10
2022-10-11T01:19:50.407Z,16.30
2022-10-11T01:22:46.285Z,16.40
2022-10-11T01:25:23.000Z,16.40
2022-10-11T01:28:15.632Z,16.50
2022-10-11T01:30:42.485Z,16.50
2022-10-11T01:33:32.667Z,16.40
2022-10-11T01:36:15.855Z,16.50
2022-10-11T01:38:46.991Z,16.40
2022-10-11T01:41:41.321Z,16.50
2022-10-11T01:44:08.639Z,16.40
2022-10-11T01:46:35.516Z,16.40
2022-10-11T01:49:02.977Z,16.40
2022-10-11T01:51:51.123Z,16.40
2022-10-11T01:55:07.694Z,16.40
2022-10-11T01:57:36.785Z,16.50
2022-10-11T02:00:30.797Z,16.50
2022-10-11T02:03:17.132Z,16.50
2022-10-11T02:05:57.549Z,16.50
2022-10-11T02:08:47.716Z,16.30
2022-10-11T02:11:27.287Z,16.10
2022-10-11T02:14:01.951Z,16.20
2022-10-11T02:16:34.344Z,16.40
2022-10-11T02:19:02.104Z,16.40
2022-10-11T02:21:28.940Z,16.20
2022-10-11T02:24:07.174Z,16.10
2022-10-11T02:26:34.068Z,16.00
2022-10-11T02:29:01.887Z,16.20
2022-10-11T02:31:29.678Z,16.40
2022-10-11T02:34:17.517Z,16.40
2022-10-11T02:36:50.299Z,16.20
2022-10-11T02:39:28.665Z,16.30
2022-10-11T02:41:56.964Z,16.20
2022-10-11T02:44:43.101Z,16.40
2022-10-11T02:47:09.956Z,16.30
2022-10-11T02:49:36.878Z,16.40
2022-10-11T02:52:04.802Z,16.50
2022-10-11T02:54:31.645Z,16.50
2022-10-11T02:56:58.554Z,16.40
2022-10-11T02:59:25.394Z,16.40
2022-10-11T03:01:52.315Z,16.40
2022-10-11T03:04:19.224Z,16.40
2022-10-11T03:06:46.053Z,16.40
2022-10-11T03:09:12.937Z,16.40
2022-10-11T03:11:39.765Z,16.40
2022-10-11T03:14:06.667Z,16.40
2022-10-11T03:16:33.509Z,16.40
2022-10-11T03:19:00.327Z,16.30
2022-10-11T03:21:27.240Z,16.20
2022-10-11T03:23:54.092Z,16.30
2022-10-11T03:26:20.983Z,16.10
2022-10-11T03:28:47.834Z,16.20
2022-10-11T03:31:14.740Z,16.10
2022-10-11T03:33:41.652Z,16.10
2022-10-11T03:36:09.211Z,16.20
2022-10-11T03:38:36.242Z,16.30
2022-10-11T03:41:03.060Z,16.40
2022-10-11T03:43:29.925Z,16.30
2022-10-11T03:45:57.015Z,16.20
2022-10-11T03:48:23.863Z,16.20
2022-10-11T03:50:50.745Z,16.20
2022-10-11T03:53:17.602Z,16.20
2022-10-11T03:55:44.543Z,16.30
2022-10-11T03:58:11.425Z,16.20
2022-10-11T04:00:39.249Z,16.20
2022-10-11T04:03:06.105Z,16.10
2022-10-11T04:05:32.950Z,16.00
2022-10-11T04:07:59.787Z,16.00
2022-10-11T04:10:26.627Z,16.00
2022-10-11T04:12:53.441Z,16.10
2022-10-11T04:15:20.360Z,16.10
2022-10-11T04:17:47.180Z,16.10
2022-10-11T04:20:14.145Z,16.10
2022-10-11T04:22:41.020Z,16.30
2022-10-11T04:25:08.481Z,16.30
2022-10-11T04:27:35.385Z,16.40
2022-10-11T04:30:02.288Z,16.30
2022-10-11T04:32:29.126Z,16.40
2022-10-11T04:34:56.183Z,16.40
2022-10-11T04:37:23.035Z,16.20
2022-10-11T04:39:50.011Z,16.20
2022-10-11T04:42:16.975Z,16.10
2022-10-11T04:44:43.819Z,16.10
2022-10-11T04:47:11.579Z,16.10
2022-10-11T04:49:38.449Z,16.10
2022-10-11T04:52:05.299Z,16.10
2022-10-11T04:54:32.187Z,16.10
2022-10-11T04:56:59.037Z,16.00
2022-10-11T04:59:25.948Z,16.10
2022-10-11T05:01:52.831Z,16.10
2022-10-11T05:04:19.814Z,16.00
2022-10-11T05:06:46.825Z,16.20
2022-10-11T05:09:13.657Z,16.10
2022-10-11T05:11:40.535Z,16.30
2022-10-11T05:14:07.442Z,16.30
2022-10-11T05:16:34.258Z,16.20
2022-10-11T05:19:01.092Z,16.10
2022-10-11T05:21:28.750Z,16.10
2022-10-11T05:23:58.520Z,16.10
2022-10-11T05:26:26.316Z,16.20
2022-10-11T05:28:53.444Z,16.10
2022-10-11T05:31:20.516Z,16.10
2022-10-11T05:33:47.387Z,16.00
2022-10-11T05:36:14.367Z,15.90
2022-10-11T05:38:41.271Z,15.80
2022-10-11T05:41:09.368Z,15.80
2022-10-11T05:43:36.206Z,15.90
2022-10-11T05:46:03.475Z,16.00
2022-10-11T05:48:30.892Z,16.00
2022-10-11T05:51:02.231Z,16.10
2022-10-11T05:53:29.304Z,16.10
2022-10-11T05:55:56.320Z,16.20
2022-10-11T05:58:23.162Z,16.00
2022-10-11T06:00:50.121Z,16.10
2022-10-11T06:03:17.218Z,16.20
2022-10-11T06:05:44.234Z,16.20
2022-10-11T06:08:11.195Z,15.90
2022-10-11T06:10:38.275Z,15.80
2022-10-11T06:13:05.403Z,15.70
2022-10-11T06:15:32.423Z,15.90
2022-10-11T06:17:59.461Z,16.20
2022-10-11T06:20:27.125Z,16.30
2022-10-11T06:22:54.590Z,16.50
2022-10-11T06:25:21.515Z,16.40
2022-10-11T06:27:48.368Z,16.50
2022-10-11T06:30:15.340Z,16.50
2022-10-11T06:32:42.198Z,16.50
2022-10-11T06:35:09.356Z,16.40
2022-10-11T06:37:36.246Z,16.40
2022-10-11T06:40:03.199Z,16.40
2022-10-11T06:42:30.359Z,16.40
2022-10-11T06:44:57.213Z,16.20
2022-10-11T06:47:24.068Z,16.30
2022-10-11T06:49:51.540Z,16.30
2022-10-11T06:52:18.367Z,16.40
2022-10-11T06:54:45.794Z,16.70
2022-10-11T06:57:12.741Z,16.60
2022-10-11T06:59:39.579Z,16.50
2022-10-11T07:02:06.915Z,16.50
2022-10-11T07:04:34.147Z,16.50
2022-10-11T07:07:01.018Z,16.50
2022-10-11T07:09:27.921Z,16.60
2022-10-11T07:11:54.775Z,16.40
2022-10-11T07:14:21.629Z,16.40
2022-10-11T07:16:48.499Z,16.70
2022-10-11T07:19:15.392Z,16.70
2022-10-11T07:21:42.240Z,16.80
2022-10-11T07:24:09.152Z,16.80
2022-10-11T07:26:38.521Z,16.90
2022-10-11T07:29:07.259Z,17.10
2022-10-11T07:31:34.160Z,16.90
2022-10-11T07:34:00.995Z,16.90
2022-10-11T07:36:27.852Z,16.80
2022-10-11T07:38:54.731Z,16.90
2022-10-11T07:41:21.672Z,17.00
2022-10-11T07:43:49.830Z,17.10
2022-10-11T07:46:17.784Z,17.00
2022-10-11T07:48:44.633Z,17.10
2022-10-11T07:51:16.003Z,17.20
2022-10-11T07:53:44.141Z,17.40
2022-10-11T07:56:12.661Z,17.60
2022-10-11T07:58:40.358Z,17.40
2022-10-11T08:01:07.607Z,17.50
2022-10-11T08:03:34.464Z,17.60
2022-10-11T08:06:06.211Z,17.60
2022-10-11T08:08:33.309Z,17.60
2022-10-11T08:11:00.189Z,17.10
2022-10-11T08:13:27.144Z,16.90
2022-10-11T08:15:54.102Z,16.90
2022-10-11T08:18:21.199Z,17.20
2022-10-11T08:20:48.059Z,17.00
2022-10-11T08:23:15.887Z,17.20
2022-10-11T08:25:44.065Z,17.40
2022-10-11T08:28:15.752Z,17.50
2022-10-11T08:30:49.812Z,17.50
2022-10-11T08:33:17.768Z,17.50
2022-10-11T08:35:44.657Z,17.60
2022-10-11T08:38:11.772Z,17.70
2022-10-11T08:40:38.726Z,17.20
2022-10-11T08:43:10.592Z,17.10
2022-10-11T08:45:49.179Z,17.30
2022-10-11T08:48:26.044Z,17.40
2022-10-11T08:50:53.051Z,17.70
2022-10-11T08:53:33.870Z,17.50
2022-10-11T08:56:01.533Z,17.40
2022-10-11T08:58:49.545Z,17.20
2022-10-11T09:01:20.730Z,17.20
2022-10-11T09:03:47.852Z,17.40
2022-10-11T09:06:20.568Z,17.30
2022-10-11T09:08:56.615Z,17.40
2022-10-11T09:11:54.605Z,17.60
2022-10-11T09:14:40.025Z,17.20
2022-10-11T09:17:37.447Z,16.90
2022-10-11T09:20:07.171Z,17.10
2022-10-11T09:23:02.474Z,17.60
2022-10-11T09:25:30.861Z,17.80
2022-10-11T09:28:24.183Z,17.70
2022-10-11T09:30:52.680Z,17.60
2022-10-11T09:33:20.624Z,17.60
2022-10-11T09:35:51.509Z,17.90
2022-10-11T09:38:48.433Z,17.60
2022-10-11T09:41:18.615Z,17.30
2022-10-11T09:43:48.607Z,17.40
2022-10-11T09:46:27.929Z,17.40
2022-10-11T09:48:54.802Z,17.30
2022-10-11T09:51:22.870Z,17.40
2022-10-11T09:53:51.635Z,17.40
2022-10-11T09:56:18.457Z,17.40
2022-10-11T09:58:45.271Z,17.40
2022-10-11T10:01:14.243Z,17.80
2022-10-11T10:03:42.504Z,17.90
2022-10-11T10:06:25.927Z,17.60
2022-10-11T10:08:52.845Z,17.60
2022-10-11T10:11:19.778Z,17.80
2022-10-11T10:13:54.296Z,18.20
2022-10-11T10:16:23.999Z,18.60
2022-10-11T10:18:57.715Z,18.00
2022-10-11T10:21:28.451Z,17.80
2022-10-11T10:23:55.768Z,17.70
2022-10-11T10:26:24.541Z,18.10
2022-10-11T10:28:54.881Z,18.10
2022-10-11T10:31:23.607Z,18.20
2022-10-11T10:33:51.853Z,18.40
2022-10-11T10:36:31.350Z,18.30
2022-10-11T10:39:10.295Z,18.00
2022-10-11T10:41:37.218Z,18.20
2022-10-11T10:44:04.131Z,17.90
2022-10-11T10:47:09.895Z,17.80
2022-10-11T10:49:54.915Z,17.80
2022-10-11T10:52:47.806Z,18.10
2022-10-11T10:55:20.693Z,18.30
2022-10-11T10:57:47.565Z,17.80
2022-10-11T11:00:21.197Z,17.60
2022-10-11T11:02:58.846Z,17.50
2022-10-11T11:05:48.460Z,17.50
2022-10-11T11:08:32.071Z,17.60
2022-10-11T11:11:20.649Z,17.70
2022-10-11T11:14:13.576Z,17.80
2022-10-11T11:17:27.940Z,17.90
2022-10-11T11:20:28.766Z,18.20
2022-10-11T11:23:08.335Z,18.30
2022-10-11T11:25:44.814Z,18.50
2022-10-11T11:28:21.107Z,18.50
2022-10-11T11:31:15.839Z,18.30
2022-10-11T11:34:00.667Z,17.90
2022-10-11T11:36:46.503Z,18.20
2022-10-11T11:39:25.265Z,18.40
2022-10-11T11:41:58.707Z,18.10
2022-10-11T11:44:38.155Z,17.60
2022-10-11T11:47:31.387Z,17.70
2022-10-11T11:50:22.465Z,17.90
2022-10-11T11:52:57.569Z,17.70
2022-10-11T11:55:44.991Z,17.70
2022-10-11T11:58:34.385Z,17.50
2022-10-11T12:01:33.090Z,17.80
2022-10-11T12:04:06.908Z,18.00
2022-10-11T12:06:43.708Z,18.00
2022-10-11T12:09:23.925Z,17.90
2022-10-11T12:11:58.921Z,18.00
2022-10-11T12:14:33.145Z,18.10
2022-10-11T12:17:10.365Z,17.60
2022-10-11T12:19:37.649Z,17.50
2022-10-11T12:22:51.813Z,17.80
2022-10-11T12:25:28.602Z,17.60
2022-10-11T12:27:58.190Z,17.60
2022-10-11T12:30:44.158Z,17.80
2022-10-11T12:33:18.024Z,17.80
2022-10-11T12:35:56.225Z,17.80
2022-10-11T12:38:27.206Z,17.40
2022-10-11T12:41:09.107Z,17.40
2022-10-11T12:43:57.276Z,17.60
2022-10-11T12:46:30.164Z,17.90
2022-10-11T12:49:31.441Z,18.00
2022-10-11T12:52:21.955Z,17.90
2022-10-11T12:55:13.343Z,17.90
2022-10-11T12:57:46.484Z,18.10
2022-10-11T13:00:17.856Z,18.20
2022-10-11T13:02:44.800Z,17.90
2022-10-11T13:05:46.375Z,17.90
2022-10-11T13:08:18.936Z,17.70
2022-10-11T13:10:46.762Z,17.80
2022-10-11T13:13:24.677Z,17.60
2022-10-11T13:15:54.896Z,17.60
2022-10-11T13:18:22.895Z,17.50
2022-10-11T13:20:49.732Z,17.50
2022-10-11T13:23:20.462Z,17.50
2022-10-11T13:25:47.369Z,17.80
2022-10-11T13:28:14.380Z,17.80
2022-10-11T13:30:48.290Z,17.70
2022-10-11T13:33:23.631Z,17.60
2022-10-11T13:35:50.650Z,17.60
2022-10-11T13:38:26.910Z,17.70
2022-10-11T13:40:53.780Z,17.60
2022-10-11T13:43:21.827Z,17.80
2022-10-11T13:45:48.699Z,17.80
2022-10-11T13:48:15.916Z,17.70
2022-10-11T13:50:46.511Z,17.30
2022-10-11T13:53:13.363Z,17.30
2022-10-11T13:55:53.259Z,17.20
2022-10-11T13:58:21.665Z,17.10
2022-10-11T14:00:59.384Z,17.30
2022-10-11T14:03:49.370Z,17.30
2022-10-11T14:06:16.235Z,17.20
2022-10-11T14:08:50.435Z,17.20
2022-10-11T14:11:21.138Z,17.30
2022-10-11T14:13:49.810Z,17.10
2022-10-11T14:16:16.649Z,17.10
2022-10-11T14:18:48.808Z,17.20
2022-10-11T14:21:27.711Z,17.40
2022-10-11T14:23:56.423Z,17.40
2022-10-11T14:26:23.586Z,17.20
2022-10-11T14:28:56.837Z,17.30
2022-10-11T14:31:24.082Z,17.10
2022-10-11T14:33:50.997Z,17.00
2022-10-11T14:36:17.826Z,17.00
2022-10-11T14:38:44.671Z,17.10
2022-10-11T14:41:11.556Z,17.20
2022-10-11T14:43:38.448Z,17.20
2022-10-11T14:46:05.834Z,17.30
2022-10-11T14:48:53.628Z,17.50
2022-10-11T14:51:22.744Z,17.70
2022-10-11T14:53:49.522Z,17.80
2022-10-11T14:56:21.126Z,17.70
2022-10-11T14:58:48.478Z,17.60
2022-10-11T15:01:16.313Z,17.50
2022-10-11T15:03:43.317Z,17.50
2022-10-11T15:06:20.890Z,17.40
2022-10-11T15:08:47.895Z,17.40
2022-10-11T15:11:19.480Z,17.30
2022-10-11T15:13:46.468Z,17.40
2022-10-11T15:16:13.962Z,17.50
2022-10-11T15:18:40.884Z,17.30
2022-10-11T15:21:07.889Z,17.40
2022-10-11T15:23:34.769Z,17.40
2022-10-11T15:26:01.655Z,17.40
2022-10-11T15:28:30.636Z,17.40
2022-10-11T15:30:57.697Z,17.40
2022-10-11T15:33:24.689Z,17.40
2022-10-11T15:35:51.554Z,17.30
2022-10-11T15:38:25.052Z,17.30
2022-10-11T15:40:52.133Z,17.40
2022-10-11T15:43:24.286Z,17.60
2022-10-11T15:45:51.953Z,17.50
2022-10-11T15:48:19.286Z,17.30
2022-10-11T15:50:46.144Z,17.30
2022-10-11T15:53:14.171Z,17.20
2022-10-11T15:55:45.571Z,17.30
2022-10-11T15:58:26.566Z,17.20
2022-10-11T16:00:56.606Z,17.20
2022-10-11T16:03:26.049Z,17.20
2022-10-11T16:05:53.299Z,17.30
2022-10-11T16:08:20.759Z,17.20
2022-10-11T16:10:47.671Z,17.00
2022-10-11T16:13:14.824Z,17.10
2022-10-11T16:15:42.264Z,17.20
2022-10-11T16:18:10.855Z,17.10
2022-10-11T16:20:38.854Z,17.00
2022-10-11T16:23:05.689Z,17.10
2022-10-11T16:25:32.627Z,17.00
2022-10-11T16:27:59.504Z,17.00
2022-10-11T16:30:26.365Z,17.00
2022-10-11T16:32:53.203Z,17.00
2022-10-11T16:35:20.129Z,17.00
2022-10-11T16:37:47.107Z,16.80
2022-10-11T16:40:17.763Z,17.00
2022-10-11T16:42:45.021Z,17.00
2022-10-11T16:45:12.593Z,17.10
2022-10-11T16:47:41.431Z,17.10
2022-10-11T16:50:08.920Z,16.90
2022-10-11T16:52:35.969Z,16.80
2022-10-11T16:55:02.907Z,16.90
2022-10-11T16:57:29.745Z,16.90
2022-10-11T16:59:56.585Z,16.90
2022-10-11T17:02:27.617Z,16.90
2022-10-11T17:04:58.815Z,16.90
2022-10-11T17:07:25.737Z,16.80
2022-10-11T17:09:52.581Z,16.90
2022-10-11T17:12:21.416Z,16.80
2022-10-11T17:14:48.407Z,16.90
2022-10-11T17:17:15.348Z,17.10
2022-10-11T17:19:45.328Z,17.00
2022-10-11T17:22:13.436Z,17.10
2022-10-11T17:24:40.318Z,17.30
2022-10-11T17:27:07.473Z,17.20
2022-10-11T17:29:34.432Z,17.20
2022-10-11T17:32:01.442Z,17.30
2022-10-11T17:34:28.355Z,17.20
2022-10-11T17:36:55.308Z,17.00
2022-10-11T17:39:23.326Z,16.80
2022-10-11T17:41:50.412Z,16.80
2022-10-11T17:44:18.131Z,17.00
2022-10-11T17:46:45.437Z,17.10
2022-10-11T17:49:12.339Z,17.10
2022-10-11T17:51:39.759Z,17.10
2022-10-11T17:54:06.830Z,17.00
2022-10-11T17:56:37.766Z,17.20
2022-10-11T17:59:04.961Z,17.10
2022-10-11T18:01:31.962Z,17.00
2022-10-11T18:04:00.435Z,17.00
2022-10-11T18:06:29.002Z,16.60
2022-10-11T18:08:57.327Z,16.60
2022-10-11T18:11:24.530Z,16.40
2022-10-11T18:13:52.361Z,16.50
2022-10-11T18:16:21.023Z,16.70
2022-10-11T18:18:48.107Z,16.70
2022-10-11T18:21:14.982Z,16.70
2022-10-11T18:23:41.985Z,16.80
2022-10-11T18:26:15.817Z,16.90
2022-10-11T18:28:43.071Z,16.80
2022-10-11T18:31:13.291Z,16.80
2022-10-11T18:33:40.826Z,16.70
2022-10-11T18:36:08.478Z,16.50
2022-10-11T18:38:35.585Z,16.70
2022-10-11T18:41:06.892Z,16.80
2022-10-11T18:43:34.388Z,16.80
2022-10-11T18:46:05.621Z,16.80
2022-10-11T18:48:33.344Z,16.70
2022-10-11T18:51:08.524Z,16.70
2022-10-11T18:53:35.934Z,16.60
2022-10-11T18:56:04.395Z,16.80
2022-10-11T18:58:31.901Z,16.70
2022-10-11T19:01:10.044Z,16.60
2022-10-11T19:03:37.024Z,16.70
2022-10-11T19:06:17.332Z,16.80
2022-10-11T19:08:51.329Z,16.90
2022-10-11T19:11:21.712Z,16.90
2022-10-11T19:13:59.418Z,17.00
2022-10-11T19:16:26.795Z,17.00
2022-10-11T19:18:53.784Z,16.70
2022-10-11T19:21:20.675Z,16.50
2022-10-11T19:23:47.735Z,16.50
2022-10-11T19:26:21.364Z,16.40
2022-10-11T19:28:48.673Z,16.40
2022-10-11T19:31:17.040Z,16.50
2022-10-11T19:33:44.957Z,16.50
2022-10-11T19:36:13.172Z,16.50
2022-10-11T19:38:40.171Z,16.50
2022-10-11T19:41:07.055Z,16.40
2022-10-11T19:43:33.938Z,16.50
2022-10-11T19:46:01.766Z,16.40
2022-10-11T19:48:28.659Z,16.40
2022-10-11T19:51:09.501Z,16.30
2022-10-11T19:53:36.553Z,16.20
2022-10-11T19:56:04.329Z,16.20
2022-10-11T19:58:31.234Z,16.20
2022-10-11T20:01:06.084Z,16.20
2022-10-11T20:03:33.136Z,16.30
2022-10-11T20:06:01.116Z,16.20
2022-10-11T20:08:31.268Z,16.20
2022-10-11T20:10:59.349Z,16.10
2022-10-11T20:13:29.987Z,16.10
2022-10-11T20:16:00.477Z,16.10
2022-10-11T20:18:27.855Z,16.10
2022-10-11T20:21:03.569Z,16.20
2022-10-11T20:23:30.952Z,16.10
2022-10-11T20:26:08.252Z,16.20
2022-10-11T20:28:36.237Z,16.30
2022-10-11T20:31:04.313Z,16.20
2022-10-11T20:33:32.093Z,16.30
2022-10-11T20:36:09.850Z,16.20
2022-10-11T20:38:37.704Z,16.20
2022-10-11T20:41:08.741Z,16.10
2022-10-11T20:43:35.672Z,16.10
2022-10-11T20:46:08.137Z,16.20
2022-10-11T20:48:35.394Z,16.20
2022-10-11T20:51:02.416Z,16.30
2022-10-11T20:53:29.287Z,16.30
2022-10-11T20:55:56.256Z,16.30
2022-10-11T20:58:23.222Z,16.30
2022-10-11T21:00:50.149Z,16.40
2022-10-11T21:03:17.528Z,16.40
2022-10-11T21:05:44.476Z,16.40
2022-10-11T21:08:11.412Z,16.60
2022-10-11T21:10:38.352Z,16.60
2022-10-11T21:13:05.268Z,16.50
2022-10-11T21:15:32.606Z,16.60
2022-10-11T21:17:59.496Z,16.50
2022-10-11T21:20:26.371Z,16.30
2022-10-11T21:22:53.302Z,16.40
2022-10-11T21:25:20.308Z,16.30
2022-10-11T21:27:47.546Z,16.20
2022-10-11T21:30:14.386Z,16.30
2022-10-11T21:32:41.201Z,16.40
2022-10-11T21:35:08.090Z,16.40
2022-10-11T21:37:35.224Z,16.30
2022-10-11T21:40:02.307Z,16.30
2022-10-11T21:42:29.721Z,16.40
2022-10-11T21:44:56.620Z,16.10
2022-10-11T21:47:23.423Z,16.30
2022-10-11T21:49:50.330Z,16.50
2022-10-11T21:52:17.261Z,16.40
2022-10-11T21:54:44.085Z,16.40
2022-10-11T21:57:10.921Z,16.30
2022-10-11T21:59:38.127Z,16.40
2022-10-11T22:02:05.091Z,16.20
2022-10-11T22:04:32.004Z,16.20
2022-10-11T22:06:58.847Z,16.20
2022-10-11T22:09:25.830Z,16.20
2022-10-11T22:11:52.636Z,16.00
2022-10-11T22:14:19.667Z,16.10
2022-10-11T22:16:46.532Z,16.00
2022-10-11T22:19:13.369Z,16.00
2022-10-11T22:21:44.124Z,16.00
2022-10-11T22:24:11.967Z,16.10
2022-10-11T22:26:38.819Z,16.10
2022-10-11T22:29:05.804Z,16.10
2022-10-11T22:31:32.669Z,16.20
2022-10-11T22:34:00.299Z,16.30
2022-10-11T22:36:28.099Z,16.40
2022-10-11T22:38:55.009Z,16.10
2022-10-11T22:41:21.985Z,16.10
2022-10-11T22:43:48.891Z,16.10
2022-10-11T22:46:15.795Z,16.10
2022-10-11T22:48:42.625Z,16.00
2022-10-11T22:51:09.445Z,16.10
2022-10-11T22:53:36.273Z,16.20
2022-10-11T22:56:03.189Z,16.10
2022-10-11T22:58:30.027Z,16.20
2022-10-11T23:00:56.906Z,16.10
2022-10-11T23:03:23.989Z,16.20
2022-10-11T23:05:55.540Z,16.20
2022-10-11T23:08:22.700Z,16.20
2022-10-11T23:10:49.533Z,16.20
2022-10-11T23:13:16.456Z,16.10
2022-10-11T23:15:43.404Z,16.00
2022-10-11T23:18:10.295Z,16.10
2022-10-11T23:20:38.433Z,16.30
2022-10-11T23:23:05.874Z,16.20
2022-10-11T23:25:32.786Z,16.30
2022-10-11T23:28:01.120Z,16.30
2022-10-11T23:30:28.916Z,16.20
2022-10-11T23:32:55.763Z,16.20
2022-10-11T23:35:22.637Z,16.10
2022-10-11T23:37:49.558Z,16.30
2022-10-11T23:40:16.482Z,16.30
2022-10-11T23:42:43.463Z,16.30
2022-10-11T23:45:10.645Z,16.40
2022-10-11T23:47:37.724Z,16.30
2022-10-11T23:50:05.192Z,16.20
2022-10-11T23:52:32.044Z,16.00
2022-10-11T23:54:58.903Z,16.00
2022-10-11T23:57:25.738Z,15.90
2022-10-11T23:59:52.566Z,15.90
